Time;durP1;ratioP1;P1;durP2;ratioP2;P2;SDS_P1;SDS_P2;PMS_P1;PMS_P2;Temp;Humidity;BMP_temperature;BMP_pressure;BME280_temperature;BME280_humidity;BME280_pressure;Samples;Min_cycle;Max_cycle;Signal;HPM_P1;HPM_P2
2022/05/23 00:00:01;;;;;;;5.20;3.00;;;;;;;;;;5022841;28;20788;-75
2022/05/23 00:02:28;;;;;;;4.43;2.50;;;;;;;;;;5029557;28;20446;-78
2022/05/23 00:04:56;;;;;;;5.80;2.70;;;;;;;;;;5029634;28;20421;-77
2022/05/23 00:07:25;;;;;;;4.57;3.03;;;;;;;;;;5029525;28;20468;-77
2022/05/23 00:09:53;;;;;;;3.67;2.97;;;;;;;;;;5030584;28;20420;-78
2022/05/23 00:12:22;;;;;;;4.80;3.20;;;;;;;;;;5017125;28;20485;-76
2022/05/23 00:14:50;;;;;;;4.23;3.10;;;;;;;;;;5012083;28;20943;-77
2022/05/23 00:17:17;;;;;;;5.30;2.80;;;;;;;;;;5013476;28;20464;-76
2022/05/23 00:19:44;;;;;;;3.37;2.70;;;;;;;;;;5015852;28;20805;-77
2022/05/23 00:22:12;;;;;;;5.83;3.00;;;;;;;;;;5012733;28;20423;-75
2022/05/23 00:24:41;;;;;;;4.23;3.10;;;;;;;;;;4992353;28;20438;-75
2022/05/23 00:27:09;;;;;;;5.60;3.23;;;;;;;;;;5009876;28;20529;-75
2022/05/23 00:29:38;;;;;;;3.00;2.70;;;;;;;;;;5009082;28;20952;-74
2022/05/23 00:37:28;;;;;;;6.23;2.97;;;;;;;;;;5010645;28;20494;-78
2022/05/23 00:39:55;;;;;;;5.50;3.10;;;;;;;;;;5014142;28;20424;-76
2022/05/23 00:45:09;;;;;;;6.93;3.57;;;;;;;;;;5009673;28;20472;-76
2022/05/23 00:47:36;;;;;;;3.80;3.30;;;;;;;;;;5009283;28;20442;-76
2022/05/23 00:50:03;;;;;;;4.10;3.23;;;;;;;;;;5009953;28;20424;-75
2022/05/23 00:52:33;;;;;;;5.30;2.83;;;;;;;;;;5009875;28;20430;-75
2022/05/23 00:55:03;;;;;;;6.07;2.97;;;;;;;;;;5009849;28;20794;-76
2022/05/23 00:57:32;;;;;;;4.63;2.83;;;;;;;;;;5010638;28;20499;-74
2022/05/23 00:59:59;;;;;;;8.53;2.97;;;;;;;;;;5011770;28;20449;-75
2022/05/23 01:02:29;;;;;;;4.70;3.13;;;;;;;;;;5014692;28;20441;-76
2022/05/23 01:04:56;;;;;;;4.10;2.80;;;;;;;;;;4998277;28;20467;-76
2022/05/23 01:07:23;;;;;;;4.43;2.90;;;;;;;;;;5010513;28;20468;-76
2022/05/23 01:09:50;;;;;;;3.93;3.10;;;;;;;;;;5009235;28;20440;-76
2022/05/23 01:12:18;;;;;;;4.00;3.00;;;;;;;;;;5009539;28;20456;-76
2022/05/23 01:14:46;;;;;;;5.10;2.90;;;;;;;;;;4992352;28;20407;-76
2022/05/23 01:17:13;;;;;;;4.80;2.93;;;;;;;;;;5009233;28;20802;-78
2022/05/23 01:19:41;;;;;;;5.10;3.30;;;;;;;;;;5010648;28;20439;-78
2022/05/23 01:22:11;;;;;;;6.33;2.93;;;;;;;;;;5011477;28;20416;-77
2022/05/23 01:24:43;;;;;;;3.90;3.07;;;;;;;;;;5014199;28;20423;-77
2022/05/23 01:27:12;;;;;;;5.63;3.10;;;;;;;;;;5015561;28;20466;-76
2022/05/23 01:29:39;;;;;;;3.93;2.80;;;;;;;;;;5010433;28;20883;-75
2022/05/23 01:32:07;;;;;;;3.60;2.90;;;;;;;;;;5008919;28;20446;-76
2022/05/23 01:34:34;;;;;;;7.73;2.80;;;;;;;;;;5009202;28;20424;-76
2022/05/23 01:37:01;;;;;;;4.60;2.77;;;;;;;;;;5009256;28;20461;-77
2022/05/23 01:39:28;;;;;;;5.10;3.00;;;;;;;;;;5009169;28;20431;-75
2022/05/23 01:41:55;;;;;;;2.90;2.50;;;;;;;;;;5012813;28;20465;-77
2022/05/23 01:44:24;;;;;;;5.60;3.20;;;;;;;;;;5014957;28;20800;-75
2022/05/23 01:46:51;;;;;;;3.40;2.87;;;;;;;;;;5017220;28;20466;-76
2022/05/23 01:49:18;;;;;;;3.33;3.00;;;;;;;;;;5018646;28;20413;-76
2022/05/23 01:51:45;;;;;;;3.97;2.80;;;;;;;;;;5027220;28;20455;-76
2022/05/23 01:54:12;;;;;;;3.27;2.53;;;;;;;;;;5031936;28;20426;-77
2022/05/23 01:56:40;;;;;;;3.97;3.17;;;;;;;;;;5032291;28;20471;-75
2022/05/23 02:01:49;;;;;;;4.10;3.27;;;;;;;;;;5031203;28;20410;-76
2022/05/23 02:04:16;;;;;;;4.13;2.77;;;;;;;;;;5015200;28;20464;-77
2022/05/23 02:06:43;;;;;;;4.37;3.30;;;;;;;;;;5014404;28;20446;-76
2022/05/23 02:09:12;;;;;;;4.17;2.80;;;;;;;;;;5017449;28;20418;-77
2022/05/23 02:11:39;;;;;;;6.03;2.93;;;;;;;;;;5018819;28;20465;-77
2022/05/23 02:14:06;;;;;;;4.40;3.03;;;;;;;;;;5013341;28;21020;-77
2022/05/23 02:16:33;;;;;;;4.83;3.10;;;;;;;;;;5011622;28;20446;-75
2022/05/23 02:19:02;;;;;;;6.47;3.10;;;;;;;;;;5012059;28;20855;-75
2022/05/23 02:21:29;;;;;;;2.90;2.70;;;;;;;;;;5011944;28;20472;-78
2022/05/23 02:23:56;;;;;;;4.27;2.97;;;;;;;;;;5011887;28;20435;-76
2022/05/23 02:26:23;;;;;;;5.70;2.93;;;;;;;;;;5015810;28;20467;-78
2022/05/23 02:28:50;;;;;;;6.30;3.10;;;;;;;;;;5018574;28;20415;-76
2022/05/23 02:31:17;;;;;;;5.07;3.40;;;;;;;;;;5013460;28;20411;-77
2022/05/23 02:33:44;;;;;;;4.03;3.17;;;;;;;;;;5011987;28;20419;-77
2022/05/23 02:36:13;;;;;;;4.67;3.30;;;;;;;;;;5011929;28;20467;-78
2022/05/23 02:38:40;;;;;;;3.10;2.80;;;;;;;;;;5012883;28;20483;-76
2022/05/23 02:41:07;;;;;;;6.73;3.50;;;;;;;;;;5011838;28;20925;-77
2022/05/23 02:43:34;;;;;;;4.17;3.40;;;;;;;;;;5012779;28;20455;-76
2022/05/23 02:46:01;;;;;;;6.20;3.10;;;;;;;;;;5013922;28;20764;-77
2022/05/23 02:48:29;;;;;;;4.20;3.17;;;;;;;;;;5015901;28;20422;-76
2022/05/23 02:50:56;;;;;;;4.97;3.10;;;;;;;;;;5018161;28;20409;-77
2022/05/23 02:53:24;;;;;;;4.50;3.03;;;;;;;;;;5013229;28;20438;-75
2022/05/23 02:55:52;;;;;;;3.47;3.00;;;;;;;;;;5011152;28;20444;-75
2022/05/23 02:58:19;;;;;;;3.13;2.90;;;;;;;;;;5011011;28;20548;-77
2022/05/23 03:00:46;;;;;;;4.57;3.17;;;;;;;;;;4993852;28;20796;-76
2022/05/23 03:03:12;;;;;;;5.13;3.63;;;;;;;;;;5011899;28;20443;-77
2022/05/23 03:05:40;;;;;;;5.30;3.37;;;;;;;;;;5012174;28;20825;-77
2022/05/23 03:08:08;;;;;;;3.53;3.17;;;;;;;;;;5013252;28;20426;-77
2022/05/23 03:10:36;;;;;;;4.23;3.30;;;;;;;;;;5014921;28;20434;-76
2022/05/23 03:13:04;;;;;;;4.73;3.30;;;;;;;;;;5017067;28;20899;-76
2022/05/23 03:15:31;;;;;;;5.10;3.00;;;;;;;;;;4996354;28;20421;-77
2022/05/23 03:17:58;;;;;;;5.83;3.30;;;;;;;;;;5010817;28;20506;-76
2022/05/23 03:20:25;;;;;;;3.90;3.17;;;;;;;;;;5010815;28;20481;-75
2022/05/23 03:28:16;;;;;;;5.07;3.27;;;;;;;;;;5011121;28;20456;-77
2022/05/23 03:30:43;;;;;;;4.70;3.50;;;;;;;;;;5013008;28;20929;-76
2022/05/23 03:33:11;;;;;;;4.90;3.00;;;;;;;;;;5014652;28;20421;-76
2022/05/23 03:35:39;;;;;;;3.83;3.00;;;;;;;;;;5016891;28;20412;-77
2022/05/23 03:38:07;;;;;;;5.80;3.33;;;;;;;;;;4995789;28;20477;-75
2022/05/23 03:40:35;;;;;;;4.13;2.87;;;;;;;;;;5010490;28;20407;-77
2022/05/23 03:43:02;;;;;;;6.10;3.07;;;;;;;;;;5010338;28;20446;-76
2022/05/23 03:45:31;;;;;;;3.80;3.03;;;;;;;;;;5010681;28;20414;-74
2022/05/23 03:47:59;;;;;;;5.37;3.33;;;;;;;;;;4993342;28;20794;-77
2022/05/23 03:50:28;;;;;;;3.67;3.07;;;;;;;;;;5011179;28;20538;-77
2022/05/23 03:52:55;;;;;;;5.37;2.97;;;;;;;;;;4995143;28;20415;-77
2022/05/23 03:55:22;;;;;;;4.30;3.63;;;;;;;;;;5013500;28;20406;-77
2022/05/23 03:57:49;;;;;;;6.70;3.20;;;;;;;;;;5016220;28;20461;-76
2022/05/23 04:00:18;;;;;;;4.33;3.17;;;;;;;;;;5014635;28;20447;-75
2022/05/23 04:02:46;;;;;;;4.33;3.33;;;;;;;;;;4992795;28;20409;-75
2022/05/23 04:05:14;;;;;;;4.03;2.83;;;;;;;;;;5009984;28;20976;-77
2022/05/23 04:07:43;;;;;;;4.60;2.93;;;;;;;;;;5010097;28;20791;-77
2022/05/23 04:10:12;;;;;;;7.20;3.83;;;;;;;;;;5011645;28;20554;-74
2022/05/23 04:12:39;;;;;;;7.13;4.07;;;;;;;;;;5010506;28;20803;-78
2022/05/23 04:15:07;;;;;;;5.33;3.63;;;;;;;;;;5011876;28;20962;-77
2022/05/23 04:17:34;;;;;;;5.00;4.03;;;;;;;;;;5012449;28;20438;-75
2022/05/23 04:20:03;;;;;;;5.57;3.70;;;;;;;;;;4998741;28;20426;-76
2022/05/23 04:22:30;;;;;;;5.47;3.70;;;;;;;;;;5018214;28;20418;-76
2022/05/23 04:24:57;;;;;;;5.30;3.90;;;;;;;;;;5028706;28;20832;-77
2022/05/23 04:27:24;;;;;;;5.50;2.93;;;;;;;;;;5029095;28;20961;-77
2022/05/23 04:29:51;;;;;;;5.40;4.10;;;;;;;;;;5029614;28;21061;-76
2022/05/23 04:37:42;;;;;;;7.03;3.77;;;;;;;;;;4996204;28;20464;-76
2022/05/23 04:40:10;;;;;;;5.17;3.20;;;;;;;;;;4994533;28;20445;-75
2022/05/23 04:42:37;;;;;;;3.30;3.00;;;;;;;;;;4998440;28;20428;-75
2022/05/23 04:45:05;;;;;;;8.10;4.10;;;;;;;;;;5015729;28;20421;-78
2022/05/23 04:50:13;;;;;;;4.03;3.00;;;;;;;;;;5008365;28;20435;-76
2022/05/23 04:52:42;;;;;;;4.53;3.47;;;;;;;;;;5010318;28;20498;-77
2022/05/23 04:55:10;;;;;;;4.97;3.70;;;;;;;;;;5010192;28;20448;-78
2022/05/23 04:57:37;;;;;;;3.87;2.90;;;;;;;;;;5009778;28;20452;-79
2022/05/23 05:00:06;;;;;;;7.97;3.37;;;;;;;;;;5011724;28;20772;-77
2022/05/23 05:02:34;;;;;;;4.23;3.23;;;;;;;;;;5011570;28;20854;-76
2022/05/23 05:05:01;;;;;;;9.50;3.80;;;;;;;;;;5015444;28;20430;-77
2022/05/23 05:07:28;;;;;;;4.73;3.87;;;;;;;;;;5017071;28;20463;-76
2022/05/23 05:09:56;;;;;;;4.60;3.70;;;;;;;;;;5028764;28;20512;-78
2022/05/23 05:12:24;;;;;;;3.50;3.20;;;;;;;;;;5028913;28;20811;-79
2022/05/23 05:14:51;;;;;;;4.10;3.30;;;;;;;;;;5029166;28;20445;-76
2022/05/23 05:17:18;;;;;;;8.40;3.37;;;;;;;;;;5032360;28;20981;-77
2022/05/23 05:19:45;;;;;;;4.33;3.30;;;;;;;;;;5028030;28;20489;-78
2022/05/23 05:22:12;;;;;;;4.40;3.20;;;;;;;;;;5015309;28;20419;-77
2022/05/23 05:24:39;;;;;;;4.87;3.47;;;;;;;;;;5015246;28;20430;-77
2022/05/23 05:27:08;;;;;;;6.77;4.20;;;;;;;;;;5018799;28;20441;-81
2022/05/23 05:29:35;;;;;;;6.33;3.07;;;;;;;;;;5019377;28;20927;-78
2022/05/23 05:32:04;;;;;;;5.23;3.43;;;;;;;;;;5012914;28;20441;-83
2022/05/23 05:34:33;;;;;;;7.27;3.40;;;;;;;;;;5013091;28;20452;-79
2022/05/23 05:37:02;;;;;;;4.50;3.10;;;;;;;;;;5012672;28;20984;-76
2022/05/23 05:39:31;;;;;;;3.50;3.07;;;;;;;;;;4995969;28;20493;-77
2022/05/23 05:42:01;;;;;;;4.13;3.33;;;;;;;;;;5012473;28;20438;-76
2022/05/23 05:44:31;;;;;;;4.13;3.10;;;;;;;;;;5014709;28;20915;-76
2022/05/23 05:47:00;;;;;;;7.50;3.30;;;;;;;;;;5015082;28;20438;-77
2022/05/23 05:49:28;;;;;;;4.00;3.20;;;;;;;;;;5018097;28;20442;-78
2022/05/23 05:51:59;;;;;;;3.97;3.20;;;;;;;;;;5019212;28;20413;-79
2022/05/23 05:54:28;;;;;;;5.13;3.40;;;;;;;;;;5029626;28;20856;-78
2022/05/23 05:56:57;;;;;;;5.20;3.20;;;;;;;;;;5032343;28;20437;-77
2022/05/23 05:59:24;;;;;;;3.40;3.10;;;;;;;;;;5032176;28;20465;-76
2022/05/23 06:01:52;;;;;;;5.70;3.43;;;;;;;;;;5032773;28;20422;-77
2022/05/23 06:04:20;;;;;;;6.30;3.33;;;;;;;;;;5031657;28;20419;-77
2022/05/23 06:12:09;;;;;;;5.73;3.30;;;;;;;;;;5016837;28;20427;-76
2022/05/23 06:14:36;;;;;;;5.33;3.63;;;;;;;;;;5018653;28;20818;-77
2022/05/23 06:17:06;;;;;;;4.93;3.00;;;;;;;;;;5012665;28;20446;-76
2022/05/23 06:19:38;;;;;;;5.10;2.73;;;;;;;;;;5011787;28;20456;-77
2022/05/23 06:22:05;;;;;;;4.87;2.73;;;;;;;;;;4972194;28;20452;-78
2022/05/23 06:24:32;;;;;;;4.87;3.33;;;;;;;;;;4973278;28;20961;-78
2022/05/23 06:27:01;;;;;;;3.50;2.60;;;;;;;;;;4972010;28;20483;-75
2022/05/23 06:29:28;;;;;;;5.50;2.90;;;;;;;;;;4974706;28;20482;-75
2022/05/23 06:31:55;;;;;;;3.20;2.50;;;;;;;;;;4975036;28;20919;-79
2022/05/23 06:34:24;;;;;;;8.53;3.23;;;;;;;;;;4978339;28;22176;-78
2022/05/23 06:36:51;;;;;;;7.40;3.40;;;;;;;;;;4978998;28;20494;-78
2022/05/23 06:39:18;;;;;;;4.10;3.13;;;;;;;;;;4973414;28;20516;-79
2022/05/23 06:41:45;;;;;;;5.20;2.90;;;;;;;;;;4972903;28;20455;-78
2022/05/23 06:44:13;;;;;;;6.00;3.10;;;;;;;;;;4972796;28;20449;-77
2022/05/23 06:46:40;;;;;;;4.47;3.07;;;;;;;;;;4972950;28;20469;-80
2022/05/23 06:49:07;;;;;;;5.90;3.07;;;;;;;;;;4972542;28;20436;-78
2022/05/23 06:51:36;;;;;;;4.27;3.03;;;;;;;;;;4974200;28;20473;-78
2022/05/23 06:54:04;;;;;;;7.53;3.50;;;;;;;;;;4973511;28;20467;-76
2022/05/23 06:56:32;;;;;;;3.63;3.33;;;;;;;;;;4975359;28;20809;-78
2022/05/23 06:59:00;;;;;;;3.67;3.37;;;;;;;;;;4977946;28;21024;-77
2022/05/23 07:01:28;;;;;;;5.60;3.23;;;;;;;;;;4974304;28;20539;-76
2022/05/23 07:03:55;;;;;;;5.27;3.30;;;;;;;;;;4972204;28;20436;-77
2022/05/23 07:14:27;;;;;;;6.07;3.37;;;;;;;;;;4954507;29;20561;-78
2022/05/23 07:16:55;;;;;;;8.27;3.37;;;;;;;;;;4955013;28;20462;-79
2022/05/23 07:19:22;;;;;;;3.93;2.90;;;;;;;;;;4968619;28;20908;-77
2022/05/23 07:21:50;;;;;;;5.77;3.40;;;;;;;;;;5012496;28;20453;-77
2022/05/23 07:24:18;;;;;;;3.87;2.53;;;;;;;;;;5012579;28;20443;-76
2022/05/23 07:26:45;;;;;;;5.00;2.93;;;;;;;;;;5010523;28;20467;-74
2022/05/23 07:29:12;;;;;;;4.30;3.40;;;;;;;;;;5010902;28;20443;-75
2022/05/23 07:31:39;;;;;;;6.07;3.50;;;;;;;;;;5010790;28;21023;-76
2022/05/23 07:34:07;;;;;;;4.87;3.23;;;;;;;;;;5011037;28;20463;-76
2022/05/23 07:36:34;;;;;;;5.30;2.67;;;;;;;;;;5012017;28;20486;-76
2022/05/23 07:39:02;;;;;;;5.10;2.80;;;;;;;;;;5012206;28;20486;-77
2022/05/23 07:41:32;;;;;;;7.00;3.10;;;;;;;;;;5014373;28;20463;-76
2022/05/23 07:43:59;;;;;;;3.80;2.80;;;;;;;;;;5016824;28;20437;-77
2022/05/23 07:46:26;;;;;;;6.33;3.10;;;;;;;;;;5022439;28;20994;-76
2022/05/23 07:48:53;;;;;;;5.00;2.90;;;;;;;;;;5030305;28;20441;-77
2022/05/23 07:51:22;;;;;;;4.90;3.00;;;;;;;;;;5030000;28;20461;-75
2022/05/23 08:01:54;;;;;;;4.10;2.93;;;;;;;;;;5011171;28;21002;-77
2022/05/23 08:04:22;;;;;;;5.43;2.83;;;;;;;;;;5014314;28;20955;-75
2022/05/23 08:06:49;;;;;;;5.70;3.20;;;;;;;;;;5016282;28;20870;-75
2022/05/23 08:09:17;;;;;;;7.40;3.10;;;;;;;;;;5012167;28;20431;-77
2022/05/23 08:11:48;;;;;;;3.10;2.77;;;;;;;;;;5009599;28;20439;-77
2022/05/23 08:14:16;;;;;;;3.00;2.63;;;;;;;;;;4992279;28;20447;-77
2022/05/23 08:16:43;;;;;;;4.17;2.87;;;;;;;;;;4992382;28;20494;-75
2022/05/23 08:19:10;;;;;;;4.70;3.27;;;;;;;;;;5009835;28;20493;-76
2022/05/23 08:21:40;;;;;;;4.73;3.20;;;;;;;;;;5010842;28;20475;-77
2022/05/23 08:24:07;;;;;;;3.70;2.80;;;;;;;;;;5011821;28;20439;-76
2022/05/23 08:26:34;;;;;;;3.00;2.60;;;;;;;;;;5013443;28;20463;-76
2022/05/23 08:29:03;;;;;;;6.20;3.10;;;;;;;;;;5015833;28;20445;-76
2022/05/23 08:31:30;;;;;;;7.47;3.70;;;;;;;;;;5012438;28;20438;-79
2022/05/23 08:33:57;;;;;;;5.83;2.80;;;;;;;;;;5009702;28;20465;-76
2022/05/23 08:36:24;;;;;;;6.50;3.00;;;;;;;;;;5009298;28;20932;-75
2022/05/23 08:38:52;;;;;;;3.57;2.80;;;;;;;;;;5010022;28;20449;-76
2022/05/23 08:41:20;;;;;;;5.50;2.77;;;;;;;;;;5010434;28;20427;-76
2022/05/23 08:43:52;;;;;;;4.90;2.87;;;;;;;;;;4993171;28;20462;-76
2022/05/23 08:46:22;;;;;;;5.83;2.97;;;;;;;;;;5011471;28;20466;-76
2022/05/23 08:48:57;;;;;;;4.00;3.10;;;;;;;;;;4995598;28;20556;-77
2022/05/23 08:51:32;;;;;;;5.63;2.90;;;;;;;;;;5015382;28;20496;-77
2022/05/23 08:54:01;;;;;;;4.80;3.00;;;;;;;;;;5021646;28;20433;-76
2022/05/23 08:56:31;;;;;;;3.43;2.77;;;;;;;;;;5028706;28;21105;-76
2022/05/23 08:59:01;;;;;;;6.30;2.83;;;;;;;;;;5011562;28;20456;-78
2022/05/23 09:01:46;;;;;;;3.40;2.60;;;;;;;;;;5029422;28;20445;-78
2022/05/23 09:04:17;;;;;;;3.30;2.63;;;;;;;;;;5029147;28;20521;-77
2022/05/23 09:06:46;;;;;;;3.07;2.77;;;;;;;;;;5012464;28;20493;-76
2022/05/23 09:09:16;;;;;;;4.17;2.37;;;;;;;;;;5011039;28;20439;-77
2022/05/23 09:11:44;;;;;;;5.30;2.53;;;;;;;;;;4996363;28;20443;-77
2022/05/23 09:14:13;;;;;;;6.53;3.10;;;;;;;;;;4998379;28;20438;-77
2022/05/23 09:16:43;;;;;;;3.93;2.67;;;;;;;;;;5011529;28;20455;-78
2022/05/23 09:19:15;;;;;;;8.37;2.93;;;;;;;;;;5009054;28;20435;-76
2022/05/23 09:24:23;;;;;;;9.63;2.90;;;;;;;;;;5008731;28;20525;-76
2022/05/23 09:26:51;;;;;;;5.03;2.60;;;;;;;;;;5009383;28;20463;-77
2022/05/23 09:29:18;;;;;;;4.70;2.57;;;;;;;;;;5010742;28;20443;-75
2022/05/23 09:31:50;;;;;;;4.87;2.50;;;;;;;;;;5011380;28;20443;-75
2022/05/23 09:34:29;;;;;;;2.70;2.30;;;;;;;;;;5013543;28;20422;-74
2022/05/23 09:36:58;;;;;;;4.40;2.70;;;;;;;;;;4998030;28;20545;-75
2022/05/23 09:39:26;;;;;;;6.27;2.60;;;;;;;;;;5010914;28;20482;-76
2022/05/23 09:50:07;;;;;;;4.03;2.43;;;;;;;;;;4992921;28;20447;-74
2022/05/23 09:52:39;;;;;;;3.10;2.33;;;;;;;;;;5011049;28;20438;-75
2022/05/23 09:55:07;;;;;;;5.20;2.87;;;;;;;;;;5011053;28;20454;-76
2022/05/23 09:57:36;;;;;;;5.27;2.50;;;;;;;;;;4996836;28;20525;-75
2022/05/23 10:00:06;;;;;;;3.63;2.70;;;;;;;;;;5015282;28;20963;-75
2022/05/23 10:02:36;;;;;;;3.87;2.87;;;;;;;;;;5027652;28;20803;-76
2022/05/23 10:05:04;;;;;;;4.03;2.33;;;;;;;;;;5014199;28;20504;-75
2022/05/23 10:07:33;;;;;;;5.00;2.60;;;;;;;;;;5031742;28;20473;-77
2022/05/23 10:10:01;;;;;;;4.67;2.63;;;;;;;;;;5011258;28;20545;-75
2022/05/23 10:12:30;;;;;;;4.07;3.00;;;;;;;;;;5009398;28;20522;-75
2022/05/23 10:15:05;;;;;;;2.33;2.13;;;;;;;;;;5014071;28;20446;-75
2022/05/23 10:17:33;;;;;;;5.60;2.70;;;;;;;;;;4995936;28;20458;-75
2022/05/23 10:20:15;;;;;;;3.33;2.47;;;;;;;;;;5008899;28;20591;-75
2022/05/23 10:22:54;;;;;;;6.63;2.60;;;;;;;;;;5003763;28;21057;-76
2022/05/23 10:25:22;;;;;;;2.67;2.20;;;;;;;;;;5010787;28;20521;-76
2022/05/23 10:27:52;;;;;;;3.27;2.70;;;;;;;;;;5009107;28;20785;-75
2022/05/23 10:30:21;;;;;;;2.90;2.47;;;;;;;;;;5009020;28;20529;-76
2022/05/23 10:32:51;;;;;;;7.60;3.73;;;;;;;;;;5008968;28;20824;-75
2022/05/23 10:35:22;;;;;;;5.40;2.57;;;;;;;;;;4992732;28;20443;-76
2022/05/23 10:37:51;;;;;;;4.33;2.73;;;;;;;;;;5013868;28;20478;-75
2022/05/23 10:43:04;;;;;;;3.27;2.57;;;;;;;;;;4993782;28;20490;-76
2022/05/23 10:45:33;;;;;;;4.10;2.67;;;;;;;;;;5011635;28;20461;-76
2022/05/23 10:48:07;;;;;;;4.70;3.10;;;;;;;;;;5011521;28;20451;-76
2022/05/23 10:50:38;;;;;;;4.33;2.90;;;;;;;;;;5012014;28;20522;-75
2022/05/23 10:53:11;;;;;;;5.33;2.70;;;;;;;;;;5011886;28;20932;-75
2022/05/23 10:55:40;;;;;;;4.93;2.90;;;;;;;;;;5013447;28;20991;-74
2022/05/23 10:58:12;;;;;;;6.60;3.30;;;;;;;;;;5013573;28;20950;-74
2022/05/23 11:00:44;;;;;;;4.20;2.80;;;;;;;;;;5017390;28;20477;-75
2022/05/23 11:03:19;;;;;;;6.83;2.90;;;;;;;;;;5018147;28;20446;-75
2022/05/23 11:05:49;;;;;;;4.97;3.43;;;;;;;;;;5030463;28;20457;-77
2022/05/23 11:08:26;;;;;;;5.07;3.43;;;;;;;;;;5007652;28;20435;-74
2022/05/23 11:10:54;;;;;;;5.53;3.70;;;;;;;;;;5011541;28;20442;-74
2022/05/23 11:13:26;;;;;;;6.23;2.97;;;;;;;;;;5005849;28;20994;-74
2022/05/23 11:16:00;;;;;;;5.10;3.03;;;;;;;;;;5007421;28;20820;-74
2022/05/23 11:18:35;;;;;;;6.40;3.20;;;;;;;;;;5013648;28;20537;-73
2022/05/23 11:21:04;;;;;;;7.33;3.23;;;;;;;;;;5016408;28;20525;-76
2022/05/23 11:23:35;;;;;;;5.37;2.80;;;;;;;;;;5026693;28;20448;-74
2022/05/23 11:26:05;;;;;;;4.33;3.13;;;;;;;;;;5026695;28;20485;-73
2022/05/23 11:34:09;;;;;;;9.20;3.10;;;;;;;;;;5011778;28;20462;-74
2022/05/23 11:36:56;;;;;;;6.17;3.33;;;;;;;;;;4990905;28;20991;-75
2022/05/23 11:39:38;;;;;;;4.70;3.40;;;;;;;;;;5010864;28;20989;-75
2022/05/23 11:42:13;;;;;;;4.87;3.67;;;;;;;;;;5012320;28;20815;-77
2022/05/23 11:44:55;;;;;;;7.00;3.70;;;;;;;;;;5008913;28;20951;-76
2022/05/23 11:47:25;;;;;;;3.63;3.10;;;;;;;;;;4990901;28;20803;-75
2022/05/23 11:50:03;;;;;;;3.60;2.90;;;;;;;;;;4990015;28;20449;-76
2022/05/23 11:52:33;;;;;;;3.53;3.10;;;;;;;;;;5008533;28;20454;-75
2022/05/23 11:55:01;;;;;;;5.80;3.20;;;;;;;;;;4997670;28;20454;-75
2022/05/23 11:57:35;;;;;;;3.50;2.93;;;;;;;;;;5014647;28;20828;-75
2022/05/23 12:00:08;;;;;;;3.77;3.00;;;;;;;;;;5015839;28;20557;-75
2022/05/23 12:02:38;;;;;;;4.80;3.30;;;;;;;;;;5008441;28;20450;-76
2022/05/23 12:05:12;;;;;;;4.20;3.03;;;;;;;;;;4992716;28;20824;-75
2022/05/23 12:07:54;;;;;;;4.40;2.90;;;;;;;;;;5010506;28;20812;-74
2022/05/23 12:10:36;;;;;;;5.20;3.13;;;;;;;;;;4995169;28;20461;-76
2022/05/23 12:13:26;;;;;;;3.70;2.90;;;;;;;;;;4995609;28;20462;-75
2022/05/23 12:15:54;;;;;;;6.60;3.30;;;;;;;;;;4997514;28;20447;-74
2022/05/23 12:18:36;;;;;;;5.13;3.00;;;;;;;;;;4994996;28;20521;-75
2022/05/23 12:21:06;;;;;;;5.13;3.47;;;;;;;;;;5001005;28;20486;-75
2022/05/23 12:23:35;;;;;;;3.87;3.40;;;;;;;;;;5002263;28;20441;-75
2022/05/23 12:26:17;;;;;;;4.00;2.90;;;;;;;;;;5028744;28;20466;-76
2022/05/23 12:28:46;;;;;;;4.30;3.00;;;;;;;;;;5028445;28;20446;-74
2022/05/23 12:31:15;;;;;;;3.80;2.60;;;;;;;;;;5029406;28;20442;-75
2022/05/23 12:33:57;;;;;;;3.70;2.80;;;;;;;;;;5001195;28;20526;-75
2022/05/23 12:36:28;;;;;;;4.73;3.07;;;;;;;;;;5009623;28;20870;-76
2022/05/23 12:39:01;;;;;;;3.87;2.73;;;;;;;;;;5011846;28;20439;-75
2022/05/23 12:41:36;;;;;;;4.30;3.53;;;;;;;;;;5012340;28;20521;-75
2022/05/23 12:44:28;;;;;;;4.20;2.97;;;;;;;;;;5015979;28;20456;-76
2022/05/23 12:47:02;;;;;;;3.90;2.90;;;;;;;;;;5012228;28;20485;-75
2022/05/23 12:49:38;;;;;;;7.63;3.00;;;;;;;;;;5009491;28;20438;-75
2022/05/23 12:52:12;;;;;;;3.87;3.20;;;;;;;;;;5009663;28;20465;-75
2022/05/23 12:54:46;;;;;;;7.80;3.20;;;;;;;;;;5009958;28;20446;-75
2022/05/23 12:57:20;;;;;;;4.20;2.60;;;;;;;;;;5009530;28;20820;-76
2022/05/23 12:59:52;;;;;;;4.47;3.07;;;;;;;;;;5011436;28;20439;-75
2022/05/23 13:02:23;;;;;;;3.63;2.60;;;;;;;;;;5011210;28;20490;-77
2022/05/23 13:04:53;;;;;;;7.10;2.87;;;;;;;;;;5013401;28;20436;-76
2022/05/23 13:07:23;;;;;;;4.33;3.30;;;;;;;;;;5015783;28;20462;-77
2022/05/23 13:09:54;;;;;;;5.07;3.77;;;;;;;;;;5022400;28;20442;-78
2022/05/23 13:12:23;;;;;;;5.83;4.07;;;;;;;;;;5029016;28;20438;-76
2022/05/23 13:14:52;;;;;;;5.03;3.83;;;;;;;;;;4992651;28;20474;-78
2022/05/23 13:17:34;;;;;;;4.60;3.90;;;;;;;;;;4972302;28;20468;-76
2022/05/23 13:22:43;;;;;;;7.47;5.37;;;;;;;;;;5000979;28;20827;-78
2022/05/23 13:25:10;;;;;;;10.30;4.60;;;;;;;;;;4994208;28;20430;-74
2022/05/23 13:27:44;;;;;;;12.43;4.83;;;;;;;;;;5010555;28;20455;-75
2022/05/23 13:30:30;;;;;;;7.70;4.70;;;;;;;;;;5008955;28;20453;-74
2022/05/23 13:33:02;;;;;;;12.67;5.57;;;;;;;;;;4991595;28;20458;-74
2022/05/23 13:35:30;;;;;;;7.90;5.20;;;;;;;;;;5009923;28;20501;-72
2022/05/23 13:37:58;;;;;;;8.23;4.47;;;;;;;;;;5011185;28;20471;-76
2022/05/23 13:40:27;;;;;;;9.50;5.17;;;;;;;;;;5015074;28;20873;-75
2022/05/23 13:43:09;;;;;;;13.83;5.90;;;;;;;;;;5015018;28;20481;-76
2022/05/23 13:45:39;;;;;;;9.37;6.20;;;;;;;;;;5003062;28;20446;-75
2022/05/23 13:48:10;;;;;;;9.77;5.50;;;;;;;;;;5019016;28;20525;-75
2022/05/23 13:50:42;;;;;;;6.60;5.10;;;;;;;;;;5012898;28;20808;-74
2022/05/23 13:53:10;;;;;;;9.70;5.23;;;;;;;;;;5012195;28;20948;-75
2022/05/23 13:55:39;;;;;;;9.93;5.57;;;;;;;;;;5012454;28;20457;-76
2022/05/23 13:58:13;;;;;;;7.90;4.70;;;;;;;;;;5013030;28;20435;-76
2022/05/23 14:00:43;;;;;;;5.10;4.60;;;;;;;;;;5012365;28;20483;-76
2022/05/23 14:03:11;;;;;;;5.40;4.20;;;;;;;;;;5014665;28;20453;-77
2022/05/23 14:05:46;;;;;;;5.50;3.83;;;;;;;;;;5014439;28;20447;-74
2022/05/23 14:08:17;;;;;;;9.53;4.70;;;;;;;;;;5017387;28;20442;-76
2022/05/23 14:10:47;;;;;;;8.07;4.10;;;;;;;;;;5018599;28;20435;-77
2022/05/23 14:13:15;;;;;;;8.37;4.60;;;;;;;;;;4996032;28;20443;-80
2022/05/23 14:15:47;;;;;;;3.93;3.57;;;;;;;;;;5012058;28;20439;-76
2022/05/23 14:18:15;;;;;;;8.03;4.40;;;;;;;;;;5012462;28;20520;-75
2022/05/23 14:20:46;;;;;;;5.97;3.97;;;;;;;;;;5012451;28;20574;-78
2022/05/23 14:23:22;;;;;;;7.10;4.00;;;;;;;;;;5011350;28;20447;-75
2022/05/23 14:26:02;;;;;;;8.13;4.33;;;;;;;;;;5018442;28;20860;-77
2022/05/23 14:28:30;;;;;;;4.70;3.70;;;;;;;;;;5020770;28;20931;-77
2022/05/23 14:31:01;;;;;;;5.60;4.07;;;;;;;;;;5013925;28;20525;-77
2022/05/23 14:33:30;;;;;;;8.50;4.03;;;;;;;;;;5020418;28;20449;-80
2022/05/23 14:35:59;;;;;;;9.93;3.80;;;;;;;;;;5011914;28;20459;-78
2022/05/23 14:38:28;;;;;;;7.03;4.30;;;;;;;;;;4994662;28;20791;-77
2022/05/23 14:40:56;;;;;;;5.10;4.00;;;;;;;;;;5012471;28;20458;-76
2022/05/23 14:43:27;;;;;;;8.07;4.60;;;;;;;;;;5013818;28;20435;-75
2022/05/23 14:45:56;;;;;;;5.00;3.47;;;;;;;;;;5013406;28;20435;-77
2022/05/23 14:48:26;;;;;;;5.57;4.53;;;;;;;;;;5016886;28;20484;-75
2022/05/23 14:50:55;;;;;;;4.63;4.13;;;;;;;;;;5000798;28;20454;-75
2022/05/23 14:56:10;;;;;;;5.83;4.30;;;;;;;;;;4994995;28;20483;-76
2022/05/23 15:01:20;;;;;;;5.90;4.57;;;;;;;;;;5010753;28;20489;-76
2022/05/23 15:03:49;;;;;;;5.47;4.43;;;;;;;;;;4994182;28;20813;-75
2022/05/23 15:06:17;;;;;;;8.30;4.40;;;;;;;;;;5013037;28;20463;-75
2022/05/23 15:08:44;;;;;;;6.00;4.90;;;;;;;;;;4995956;28;20450;-77
2022/05/23 15:11:15;;;;;;;6.03;4.50;;;;;;;;;;5016822;28;20448;-76
2022/05/23 15:13:42;;;;;;;5.80;4.43;;;;;;;;;;5017491;28;20430;-74
2022/05/23 15:16:15;;;;;;;6.23;4.60;;;;;;;;;;5011176;28;20553;-76
2022/05/23 15:18:43;;;;;;;9.33;5.30;;;;;;;;;;5010956;28;20446;-75
2022/05/23 15:21:11;;;;;;;8.50;6.00;;;;;;;;;;5011035;28;21005;-77
2022/05/23 15:23:40;;;;;;;10.10;6.90;;;;;;;;;;5011369;28;20478;-77
2022/05/23 15:26:09;;;;;;;8.67;5.87;;;;;;;;;;5006747;28;20485;-76
2022/05/23 15:28:36;;;;;;;5.70;5.10;;;;;;;;;;4993357;28;20453;-78
2022/05/23 15:31:04;;;;;;;8.13;5.27;;;;;;;;;;5014083;28;20439;-76
2022/05/23 15:33:31;;;;;;;6.70;5.77;;;;;;;;;;5001081;28;20439;-76
2022/05/23 15:35:58;;;;;;;11.40;5.40;;;;;;;;;;5026692;28;20466;-76
2022/05/23 15:38:27;;;;;;;9.27;6.37;;;;;;;;;;5026696;28;20446;-78
2022/05/23 15:40:54;;;;;;;13.40;6.07;;;;;;;;;;5027182;28;20450;-77
2022/05/23 15:43:24;;;;;;;11.60;7.00;;;;;;;;;;5029853;28;20484;-77
2022/05/23 15:45:52;;;;;;;9.37;6.00;;;;;;;;;;5015908;28;20811;-78
2022/05/23 15:48:20;;;;;;;7.50;6.70;;;;;;;;;;5012299;28;20509;-76
2022/05/23 15:50:47;;;;;;;7.03;6.33;;;;;;;;;;4995415;28;20454;-78
2022/05/23 15:53:15;;;;;;;11.83;7.53;;;;;;;;;;5016280;28;20940;-75
2022/05/23 15:55:45;;;;;;;8.20;6.00;;;;;;;;;;5017170;28;20454;-75
2022/05/23 15:58:13;;;;;;;7.70;6.10;;;;;;;;;;4990553;28;20444;-79
2022/05/23 16:00:41;;;;;;;7.40;6.17;;;;;;;;;;4990473;28;20475;-79
2022/05/23 16:03:08;;;;;;;7.23;6.30;;;;;;;;;;4980297;28;20573;-76
2022/05/23 16:05:37;;;;;;;7.77;6.30;;;;;;;;;;5010801;28;20446;-75
2022/05/23 16:08:04;;;;;;;10.00;7.00;;;;;;;;;;5010026;28;20447;-76